createdAt,value
2022-09-12T00:01:20.936Z,14.63
2022-09-12T00:03:49.939Z,14.57
2022-09-12T00:06:22.993Z,14.60
2022-09-12T00:08:51.954Z,14.53
2022-09-12T00:11:20.075Z,14.56
2022-09-12T00:13:48.310Z,14.43
2022-09-12T00:16:19.130Z,14.37
2022-09-12T00:18:47.923Z,14.35
2022-09-12T00:21:16.721Z,14.37
2022-09-12T00:23:45.172Z,14.39
2022-09-12T00:26:13.349Z,14.33
2022-09-12T00:28:42.724Z,14.37
2022-09-12T00:31:14.233Z,14.32
2022-09-12T00:33:43.973Z,14.30
2022-09-12T00:36:14.889Z,14.37
2022-09-12T00:38:43.026Z,14.42
2022-09-12T00:41:16.683Z,14.40
2022-09-12T00:43:47.885Z,14.37
2022-09-12T00:46:27.383Z,14.37
2022-09-12T00:49:00.422Z,14.35
2022-09-12T00:51:30.584Z,14.37
2022-09-12T00:54:00.956Z,14.33
2022-09-12T00:56:30.026Z,14.33
2022-09-12T00:59:03.726Z,14.46
2022-09-12T01:01:32.893Z,14.43
2022-09-12T01:04:03.877Z,14.39
2022-09-12T01:06:37.152Z,14.25
2022-09-12T01:09:06.222Z,14.19
2022-09-12T01:11:37.118Z,14.19
2022-09-12T01:14:07.529Z,14.18
2022-09-12T01:16:36.954Z,14.11
2022-09-12T01:19:20.352Z,14.21
2022-09-12T01:21:59.165Z,14.22
2022-09-12T01:24:59.019Z,14.07
2022-09-12T01:27:37.182Z,14.04
2022-09-12T01:30:23.411Z,13.97
2022-09-12T01:33:05.814Z,13.91
2022-09-12T01:35:37.899Z,13.85
2022-09-12T01:38:13.409Z,13.82
2022-09-12T01:40:47.013Z,13.77
2022-09-12T01:43:24.907Z,13.82
2022-09-12T01:46:01.202Z,13.88
2022-09-12T01:48:32.224Z,13.77
2022-09-12T01:51:07.695Z,13.92
2022-09-12T01:53:41.111Z,13.85
2022-09-12T01:56:14.408Z,13.74
2022-09-12T01:58:47.085Z,13.81
2022-09-12T02:01:21.458Z,13.74
2022-09-12T02:03:54.854Z,13.71
2022-09-12T02:06:27.097Z,13.66
2022-09-12T02:08:59.817Z,13.64
2022-09-12T02:11:27.937Z,13.64
2022-09-12T02:14:00.588Z,13.71
2022-09-12T02:16:35.587Z,13.71
2022-09-12T02:19:09.003Z,13.70
2022-09-12T02:21:40.200Z,13.75
2022-09-12T02:24:11.144Z,13.70
2022-09-12T02:26:47.364Z,13.61
2022-09-12T02:29:15.622Z,13.53
2022-09-12T02:31:47.652Z,13.52
2022-09-12T02:34:27.977Z,13.50
2022-09-12T02:37:06.592Z,13.47
2022-09-12T02:39:35.178Z,13.46
2022-09-12T02:42:04.436Z,13.42
2022-09-12T02:44:33.830Z,13.40
2022-09-12T02:47:07.123Z,13.38
2022-09-12T02:49:35.269Z,13.33
2022-09-12T02:52:04.260Z,13.39
2022-09-12T02:54:33.044Z,13.38
2022-09-12T02:57:03.077Z,13.29
2022-09-12T02:59:31.226Z,13.30
2022-09-12T03:02:19.186Z,13.26
2022-09-12T03:05:17.865Z,13.25
2022-09-12T03:08:00.342Z,13.20
2022-09-12T03:10:36.750Z,13.27
2022-09-12T03:13:16.784Z,13.30
2022-09-12T03:15:53.178Z,13.46
2022-09-12T03:18:33.921Z,13.50
2022-09-12T03:21:05.766Z,13.64
2022-09-12T03:23:38.132Z,13.36
2022-09-12T03:26:13.315Z,13.47
2022-09-12T03:28:43.518Z,13.38
2022-09-12T03:31:16.161Z,13.13
2022-09-12T03:33:45.931Z,12.87
2022-09-12T03:36:19.756Z,12.83
2022-09-12T03:38:47.893Z,12.63
2022-09-12T03:41:15.914Z,12.57
2022-09-12T03:43:44.055Z,12.69
2022-09-12T03:46:12.156Z,12.47
2022-09-12T03:48:40.314Z,12.57
2022-09-12T03:51:11.806Z,12.51
2022-09-12T03:53:41.927Z,12.65
2022-09-12T03:56:17.709Z,12.77
2022-09-12T03:58:45.668Z,12.63
2022-09-12T04:01:15.314Z,12.46
2022-09-12T04:03:44.546Z,12.44
2022-09-12T04:06:16.034Z,12.54
2022-09-12T04:08:44.822Z,12.54
2022-09-12T04:11:14.984Z,12.68
2022-09-12T04:13:44.478Z,12.75
2022-09-12T04:16:13.459Z,12.87
2022-09-12T04:18:41.735Z,12.96
2022-09-12T04:21:12.485Z,12.94
2022-09-12T04:23:42.260Z,12.88
2022-09-12T04:26:11.726Z,12.92
2022-09-12T04:28:39.969Z,12.91
2022-09-12T04:31:10.909Z,12.84
2022-09-12T04:33:39.391Z,12.80
2022-09-12T04:36:09.703Z,12.87
2022-09-12T04:38:38.208Z,12.83
2022-09-12T04:41:13.759Z,12.88
2022-09-12T04:43:41.990Z,12.89
2022-09-12T04:46:11.212Z,12.81
2022-09-12T04:48:39.623Z,12.89
2022-09-12T04:51:09.082Z,12.95
2022-09-12T04:53:38.652Z,13.06
2022-09-12T04:56:07.613Z,13.06
2022-09-12T04:58:41.592Z,13.20
2022-09-12T05:01:11.366Z,13.16
2022-09-12T05:03:40.069Z,13.22
2022-09-12T05:06:09.861Z,13.25
2022-09-12T05:08:38.453Z,13.39
2022-09-12T05:11:08.215Z,13.39
2022-09-12T05:13:40.413Z,13.36
2022-09-12T05:16:12.137Z,13.40
2022-09-12T05:18:42.605Z,13.44
2022-09-12T05:21:13.203Z,13.60
2022-09-12T05:23:41.824Z,13.69
2022-09-12T05:26:14.504Z,13.77
2022-09-12T05:28:42.956Z,13.81
2022-09-12T05:31:15.376Z,13.97
2022-09-12T05:33:47.132Z,13.95
2022-09-12T05:36:18.539Z,14.07
2022-09-12T05:38:47.342Z,14.09
2022-09-12T05:41:19.954Z,14.22
2022-09-12T05:43:53.373Z,14.24
2022-09-12T05:46:25.354Z,14.28
2022-09-12T05:48:56.281Z,14.36
2022-09-12T05:51:26.763Z,14.42
2022-09-12T05:53:56.784Z,14.49
2022-09-12T05:56:26.592Z,14.55
2022-09-12T05:58:56.300Z,14.60
2022-09-12T06:01:27.330Z,14.64
2022-09-12T06:03:57.828Z,14.83
2022-09-12T06:06:27.413Z,14.80
2022-09-12T06:08:58.564Z,14.87
2022-09-12T06:11:29.520Z,14.94
2022-09-12T06:13:59.186Z,15.01
2022-09-12T06:16:29.993Z,15.12
2022-09-12T06:19:00.070Z,15.18
2022-09-12T06:21:28.976Z,15.12
2022-09-12T06:23:58.745Z,15.34
2022-09-12T06:26:27.677Z,15.36
2022-09-12T06:28:57.131Z,15.36
2022-09-12T06:31:29.699Z,15.48
2022-09-12T06:34:02.529Z,15.56
2022-09-12T06:36:32.153Z,15.62
2022-09-12T06:39:03.200Z,15.70
2022-09-12T06:41:32.352Z,15.82
2022-09-12T06:44:01.347Z,15.83
2022-09-12T06:46:31.814Z,15.87
2022-09-12T06:49:01.121Z,15.87
2022-09-12T06:51:29.835Z,15.93
2022-09-12T06:54:02.077Z,16.08
2022-09-12T06:56:30.522Z,16.25
2022-09-12T06:59:00.034Z,16.32
2022-09-12T07:01:31.652Z,16.47
2022-09-12T07:04:01.449Z,16.55
2022-09-12T07:06:32.625Z,16.72
2022-09-12T07:09:01.926Z,16.83
2022-09-12T07:11:32.507Z,16.93
2022-09-12T07:14:04.865Z,16.93
2022-09-12T07:16:36.815Z,16.69
2022-09-12T07:19:06.887Z,16.80
2022-09-12T07:21:39.851Z,16.75
2022-09-12T07:24:10.102Z,16.87
2022-09-12T07:26:40.085Z,16.94
2022-09-12T07:29:34.822Z,17.03
2022-09-12T07:31:58.877Z,17.13
2022-09-12T07:34:27.099Z,17.31
2022-09-12T07:36:55.210Z,17.31
2022-09-12T07:39:23.286Z,17.32
2022-09-12T07:41:51.554Z,17.42
2022-09-12T07:44:19.639Z,17.47
2022-09-12T07:46:47.754Z,17.74
2022-09-12T07:49:17.368Z,17.79
2022-09-12T07:51:47.806Z,17.68
2022-09-12T07:54:15.942Z,17.95
2022-09-12T07:56:43.999Z,17.86
2022-09-12T07:59:12.111Z,17.85
2022-09-12T08:01:41.674Z,18.27
2022-09-12T08:04:09.936Z,18.41
2022-09-12T08:06:39.524Z,18.48
2022-09-12T08:09:08.525Z,18.61
2022-09-12T08:11:36.667Z,18.47
2022-09-12T08:14:05.882Z,18.20
2022-09-12T08:16:35.794Z,18.27
2022-09-12T08:19:04.731Z,18.34
2022-09-12T08:21:35.375Z,18.22
2022-09-12T08:24:07.015Z,18.31
2022-09-12T08:26:36.189Z,18.51
2022-09-12T08:29:05.355Z,18.57
2022-09-12T08:31:36.678Z,18.88
2022-09-12T08:34:05.619Z,18.82
2022-09-12T08:36:34.315Z,19.06
2022-09-12T08:39:05.535Z,19.07
2022-09-12T08:41:38.771Z,19.10
2022-09-12T08:44:24.300Z,19.54
2022-09-12T08:47:10.357Z,19.31
2022-09-12T08:49:40.962Z,19.54
2022-09-12T08:52:17.740Z,19.67
2022-09-12T08:54:47.671Z,19.27
2022-09-12T08:57:16.596Z,19.38
2022-09-12T08:59:46.272Z,19.38
2022-09-12T09:02:32.339Z,19.92
2022-09-12T09:05:02.512Z,19.77
2022-09-12T09:07:46.947Z,19.77
2022-09-12T09:10:25.456Z,19.72
2022-09-12T09:13:03.142Z,20.05
2022-09-12T09:15:42.599Z,20.09
2022-09-12T09:18:19.728Z,20.23
2022-09-12T09:20:53.081Z,20.09
2022-09-12T09:23:25.040Z,20.12
2022-09-12T09:25:59.539Z,19.91
2022-09-12T09:28:33.897Z,20.02
2022-09-12T09:31:02.628Z,20.34
2022-09-12T09:33:35.595Z,20.54
2022-09-12T09:36:14.927Z,19.91
2022-09-12T09:38:50.425Z,20.53
2022-09-12T09:41:32.309Z,20.25
2022-09-12T09:44:02.965Z,20.37
2022-09-12T09:46:31.318Z,20.46
2022-09-12T09:49:02.814Z,20.54
2022-09-12T09:51:36.459Z,20.20
2022-09-12T09:54:12.337Z,19.89
2022-09-12T09:56:42.976Z,19.71
2022-09-12T09:59:13.068Z,19.86
2022-09-12T10:01:46.507Z,19.57
2022-09-12T10:04:23.554Z,19.54
2022-09-12T10:06:54.431Z,19.72
2022-09-12T10:09:25.492Z,19.68
2022-09-12T10:11:55.897Z,19.92
2022-09-12T10:14:37.779Z,19.65
2022-09-12T10:17:25.900Z,19.63
2022-09-12T10:20:17.345Z,19.72
2022-09-12T10:22:50.281Z,19.60
2022-09-12T10:25:21.353Z,19.63
2022-09-12T10:27:57.186Z,19.84
2022-09-12T10:30:28.550Z,19.81
2022-09-12T10:33:00.888Z,19.61
2022-09-12T10:35:35.432Z,19.43
2022-09-12T10:38:07.549Z,19.63
2022-09-12T10:40:40.154Z,19.67
2022-09-12T10:43:24.767Z,19.81
2022-09-12T10:45:53.087Z,19.74
2022-09-12T10:48:29.647Z,19.55
2022-09-12T10:50:58.980Z,19.74
2022-09-12T10:53:33.657Z,19.74
2022-09-12T10:56:09.532Z,19.84
2022-09-12T10:58:53.797Z,19.99
2022-09-12T11:01:36.466Z,19.98
2022-09-12T11:04:20.342Z,20.04
2022-09-12T11:06:59.728Z,19.79
2022-09-12T11:09:36.221Z,19.72
2022-09-12T11:12:12.920Z,19.54
2022-09-12T11:14:55.806Z,19.64
2022-09-12T11:17:33.268Z,19.71
2022-09-12T11:20:18.505Z,19.55
2022-09-12T11:23:19.589Z,19.49
2022-09-12T11:25:54.124Z,19.33
2022-09-12T11:28:32.742Z,19.34
2022-09-12T11:31:28.863Z,19.09
2022-09-12T11:34:01.156Z,18.91
2022-09-12T11:36:38.135Z,18.91
2022-09-12T11:39:14.655Z,18.91
2022-09-12T11:41:44.437Z,19.03
2022-09-12T11:44:18.506Z,19.19
2022-09-12T11:46:51.775Z,19.22
2022-09-12T11:49:34.776Z,19.22
2022-09-12T11:52:07.854Z,19.34
2022-09-12T11:54:41.160Z,19.10
2022-09-12T11:57:16.120Z,19.30
2022-09-12T11:59:50.062Z,19.36
2022-09-12T12:02:25.851Z,19.33
2022-09-12T12:05:04.940Z,19.40
2022-09-12T12:07:45.159Z,19.17
2022-09-12T12:10:26.736Z,19.28
2022-09-12T12:12:56.678Z,19.46
2022-09-12T12:15:26.707Z,19.47
2022-09-12T12:18:08.930Z,19.43
2022-09-12T12:20:37.775Z,19.49
2022-09-12T12:23:05.873Z,19.37
2022-09-12T12:25:42.497Z,19.54
2022-09-12T12:28:10.587Z,19.44
2022-09-12T12:31:03.415Z,19.61
2022-09-12T12:34:16.540Z,20.22
2022-09-12T12:36:46.460Z,20.49
2022-09-12T12:40:01.504Z,20.84
2022-09-12T12:43:08.167Z,20.85
2022-09-12T12:46:01.065Z,20.92
2022-09-12T12:48:33.746Z,20.88
2022-09-12T12:51:37.445Z,21.09
2022-09-12T12:54:27.610Z,20.61
2022-09-12T12:57:07.653Z,21.25
2022-09-12T12:59:35.828Z,21.28
2022-09-12T13:02:05.709Z,21.43
2022-09-12T13:04:34.589Z,21.04
2022-09-12T13:07:08.916Z,21.18
2022-09-12T13:09:45.836Z,21.04
2022-09-12T13:12:20.773Z,21.56
2022-09-12T13:14:52.789Z,21.31
2022-09-12T13:17:29.119Z,20.90
2022-09-12T13:20:26.799Z,21.25
2022-09-12T13:22:56.007Z,21.11
2022-09-12T13:25:31.982Z,20.96
2022-09-12T13:28:09.650Z,20.57
2022-09-12T13:30:39.906Z,20.74
2022-09-12T13:33:19.429Z,20.57
2022-09-12T13:36:07.075Z,21.08
2022-09-12T13:38:44.611Z,21.18
2022-09-12T13:41:33.997Z,21.06
2022-09-12T13:44:03.627Z,21.31
2022-09-12T13:46:35.153Z,21.08
2022-09-12T13:49:12.859Z,20.99
2022-09-12T13:51:41.248Z,20.77
2022-09-12T13:54:09.586Z,21.08
2022-09-12T13:56:48.364Z,21.02
2022-09-12T13:59:16.561Z,21.04
2022-09-12T14:01:46.468Z,20.81
2022-09-12T14:04:37.937Z,20.88
2022-09-12T14:07:14.383Z,20.80
2022-09-12T14:09:44.939Z,20.81
2022-09-12T14:12:26.126Z,20.88
2022-09-12T14:14:54.920Z,20.74
2022-09-12T14:17:31.707Z,20.30
2022-09-12T14:20:03.427Z,20.63
2022-09-12T14:22:32.290Z,20.63
2022-09-12T14:25:00.943Z,20.98
2022-09-12T14:27:43.211Z,21.09
2022-09-12T14:30:25.032Z,20.94
2022-09-12T14:33:07.410Z,21.14
2022-09-12T14:35:36.400Z,21.09
2022-09-12T14:38:13.957Z,21.05
2022-09-12T14:40:44.519Z,21.28
2022-09-12T14:43:26.059Z,21.29
2022-09-12T14:45:56.130Z,21.15
2022-09-12T14:48:25.152Z,21.19
2022-09-12T14:50:54.956Z,21.21
2022-09-12T14:53:31.892Z,21.23
2022-09-12T14:56:07.510Z,21.21
2022-09-12T14:58:37.832Z,21.46
2022-09-12T15:01:27.734Z,21.42
2022-09-12T15:03:57.767Z,21.47
2022-09-12T15:06:29.703Z,21.36
2022-09-12T15:09:00.697Z,21.41
2022-09-12T15:11:28.944Z,21.32
2022-09-12T15:13:58.411Z,21.46
2022-09-12T15:16:26.622Z,21.19
2022-09-12T15:18:54.790Z,21.16
2022-09-12T15:21:22.888Z,21.38
2022-09-12T15:23:52.150Z,21.18
2022-09-12T15:26:21.870Z,21.25
2022-09-12T15:28:50.328Z,21.19
2022-09-12T15:31:25.199Z,21.06
2022-09-12T15:33:54.081Z,21.09
2022-09-12T15:36:23.611Z,21.21
2022-09-12T15:38:52.417Z,21.04
2022-09-12T15:41:22.631Z,21.15
2022-09-12T15:43:51.302Z,21.18
2022-09-12T15:46:21.326Z,20.92
2022-09-12T15:48:50.267Z,20.87
2022-09-12T15:51:19.802Z,20.88
2022-09-12T15:53:48.800Z,20.91
2022-09-12T15:56:19.236Z,20.92
2022-09-12T15:58:58.116Z,20.70
2022-09-12T16:01:29.856Z,20.67
2022-09-12T16:03:58.383Z,20.57
2022-09-12T16:06:27.260Z,20.49
2022-09-12T16:08:57.489Z,20.54
2022-09-12T16:11:28.104Z,20.47
2022-09-12T16:13:58.188Z,20.36
2022-09-12T16:16:26.385Z,20.22
2022-09-12T16:18:56.028Z,20.22
2022-09-12T16:21:28.471Z,20.12
2022-09-12T16:23:56.522Z,20.04
2022-09-12T16:26:24.614Z,19.95
2022-09-12T16:28:56.985Z,19.88
2022-09-12T16:31:25.447Z,19.81
2022-09-12T16:33:54.126Z,19.71
2022-09-12T16:36:24.481Z,19.63
2022-09-12T16:38:53.808Z,19.55
2022-09-12T16:41:25.207Z,19.43
2022-09-12T16:43:53.661Z,19.40
2022-09-12T16:46:24.003Z,19.24
2022-09-12T16:48:54.855Z,19.28
2022-09-12T16:51:28.972Z,19.23
2022-09-12T16:53:57.338Z,19.22
2022-09-12T16:56:27.305Z,19.13
2022-09-12T16:58:55.597Z,19.13
2022-09-12T17:01:25.523Z,19.00
2022-09-12T17:03:54.694Z,18.91
2022-09-12T17:06:25.244Z,18.79
2022-09-12T17:08:54.891Z,18.76
2022-09-12T17:11:26.577Z,18.73
2022-09-12T17:14:05.760Z,18.57
2022-09-12T17:16:35.348Z,18.60
2022-09-12T17:19:03.834Z,18.40
2022-09-12T17:21:33.975Z,18.33
2022-09-12T17:24:07.731Z,18.26
2022-09-12T17:26:35.907Z,18.17
2022-09-12T17:29:04.426Z,18.04
2022-09-12T17:31:33.436Z,18.03
2022-09-12T17:34:03.311Z,18.00
2022-09-12T17:36:32.402Z,17.96
2022-09-12T17:39:03.797Z,17.96
2022-09-12T17:41:33.536Z,17.93
2022-09-12T17:44:02.858Z,17.86
2022-09-12T17:46:35.082Z,17.93
2022-09-12T17:49:06.282Z,17.76
2022-09-12T17:51:35.751Z,17.64
2022-09-12T17:54:08.582Z,17.66
2022-09-12T17:56:38.205Z,17.57
2022-09-12T17:59:08.716Z,17.52
2022-09-12T18:01:54.674Z,17.47
2022-09-12T18:04:22.844Z,17.38
2022-09-12T18:06:51.287Z,17.23
2022-09-12T18:09:23.597Z,17.35
2022-09-12T18:11:52.952Z,17.39
2022-09-12T18:14:22.169Z,17.14
2022-09-12T18:16:50.922Z,17.16
2022-09-12T18:19:19.879Z,17.17
2022-09-12T18:21:48.140Z,17.10
2022-09-12T18:24:16.753Z,16.90
2022-09-12T18:26:46.408Z,16.89
2022-09-12T18:29:21.237Z,16.86
2022-09-12T18:31:49.963Z,16.84
2022-09-12T18:34:22.668Z,16.69
2022-09-12T18:36:55.216Z,16.80
2022-09-12T18:39:27.443Z,16.58
2022-09-12T18:41:57.750Z,16.62
2022-09-12T18:44:26.317Z,16.48
2022-09-12T18:46:54.933Z,16.31
2022-09-12T18:49:23.668Z,16.21
2022-09-12T18:51:54.057Z,16.18
2022-09-12T18:54:22.873Z,16.29
2022-09-12T18:56:51.593Z,16.44
2022-09-12T18:59:21.171Z,16.00
2022-09-12T19:01:53.602Z,15.76
2022-09-12T19:04:22.637Z,15.77
2022-09-12T19:06:51.162Z,15.63
2022-09-12T19:09:21.755Z,15.53
2022-09-12T19:11:50.721Z,15.69
2022-09-12T19:14:26.720Z,15.74
2022-09-12T19:16:55.481Z,15.65
2022-09-12T19:19:25.875Z,15.31
2022-09-12T19:21:56.544Z,15.04
2022-09-12T19:24:25.066Z,15.21
2022-09-12T19:26:53.629Z,14.95
2022-09-12T19:29:23.406Z,14.55
2022-09-12T19:31:53.944Z,14.45
2022-09-12T19:34:22.857Z,14.35
2022-09-12T19:36:51.318Z,14.36
2022-09-12T19:39:20.854Z,14.42
2022-09-12T19:41:49.541Z,14.42
2022-09-12T19:44:19.485Z,14.40
2022-09-12T19:46:49.263Z,14.43
2022-09-12T19:49:17.410Z,14.37
2022-09-12T19:51:45.670Z,14.29
2022-09-12T19:54:13.720Z,14.21
2022-09-12T19:56:41.931Z,14.19
2022-09-12T19:59:11.832Z,14.15
2022-09-12T20:01:40.343Z,14.22
2022-09-12T20:04:10.265Z,14.43
2022-09-12T20:06:38.746Z,14.64
2022-09-12T20:09:09.047Z,14.83
2022-09-12T20:11:37.191Z,14.87
2022-09-12T20:14:05.331Z,14.81
2022-09-12T20:16:33.791Z,14.79
2022-09-12T20:19:07.312Z,14.64
2022-09-12T20:21:38.024Z,14.37
2022-09-12T20:24:08.022Z,13.71
2022-09-12T20:26:36.457Z,13.66
2022-09-12T20:29:06.059Z,13.56
2022-09-12T20:31:34.640Z,13.44
2022-09-12T20:34:07.062Z,13.47
2022-09-12T20:36:36.667Z,13.59
2022-09-12T20:39:05.114Z,13.60
2022-09-12T20:41:35.394Z,13.66
2022-09-12T20:44:03.890Z,13.50
2022-09-12T20:46:32.135Z,13.39
2022-09-12T20:49:00.416Z,13.33
2022-09-12T20:51:30.435Z,13.52
2022-09-12T20:54:01.425Z,13.32
2022-09-12T20:56:31.778Z,13.22
2022-09-12T20:59:00.726Z,13.46
2022-09-12T21:01:31.407Z,13.46
2022-09-12T21:04:00.871Z,13.63
2022-09-12T21:06:29.045Z,13.74
2022-09-12T21:08:59.907Z,13.85
2022-09-12T21:11:30.074Z,13.61
2022-09-12T21:13:58.357Z,13.33
2022-09-12T21:16:26.873Z,13.13
2022-09-12T21:18:56.534Z,13.08
2022-09-12T21:21:25.249Z,12.92
2022-09-12T21:23:59.336Z,12.91
2022-09-12T21:26:27.635Z,12.89
2022-09-12T21:28:59.665Z,12.92
2022-09-12T21:31:27.924Z,12.65
2022-09-12T21:33:56.125Z,12.54
2022-09-12T21:36:25.571Z,12.26
2022-09-12T21:38:53.627Z,12.06
2022-09-12T21:41:21.666Z,12.29
2022-09-12T21:43:49.908Z,12.29
2022-09-12T21:46:20.092Z,12.46
2022-09-12T21:48:48.283Z,12.37
2022-09-12T21:51:16.317Z,12.25
2022-09-12T21:53:44.848Z,12.08
2022-09-12T21:56:12.876Z,11.70
2022-09-12T21:58:40.919Z,11.72
2022-09-12T22:01:09.884Z,11.72
2022-09-12T22:03:39.804Z,11.81
2022-09-12T22:06:08.163Z,11.65
2022-09-12T22:08:41.495Z,11.54
2022-09-12T22:11:10.475Z,11.61
2022-09-12T22:13:39.730Z,11.68
2022-09-12T22:16:08.153Z,11.77
2022-09-12T22:18:37.027Z,11.81
2022-09-12T22:21:08.558Z,11.64
2022-09-12T22:23:54.013Z,11.41
2022-09-12T22:26:22.320Z,11.47
2022-09-12T22:28:50.499Z,11.38
2022-09-12T22:31:19.092Z,11.41
2022-09-12T22:33:48.195Z,11.30
2022-09-12T22:36:17.723Z,10.99
2022-09-12T22:38:45.866Z,10.95
2022-09-12T22:41:14.755Z,10.65
2022-09-12T22:43:43.032Z,10.21
2022-09-12T22:46:13.405Z,10.25
2022-09-12T22:48:42.703Z,10.14
2022-09-12T22:51:11.569Z,10.25
2022-09-12T22:53:41.201Z,10.02
2022-09-12T22:56:10.437Z,10.07
2022-09-12T22:58:38.733Z,10.20
2022-09-12T23:01:07.718Z,10.29
2022-09-12T23:03:36.647Z,10.27
2022-09-12T23:06:05.662Z,10.25
2022-09-12T23:08:35.900Z,10.30
2022-09-12T23:11:09.221Z,10.42
2022-09-12T23:13:37.766Z,10.51
2022-09-12T23:16:08.144Z,10.61
2022-09-12T23:18:37.016Z,10.80
2022-09-12T23:21:06.907Z,10.89
2022-09-12T23:23:35.847Z,10.95
2022-09-12T23:26:08.053Z,11.00
2022-09-12T23:28:36.635Z,11.10
2022-09-12T23:31:05.148Z,10.95
2022-09-12T23:33:33.746Z,10.51
2022-09-12T23:36:03.095Z,10.55
2022-09-12T23:38:31.933Z,10.37
2022-09-12T23:41:01.279Z,10.21
2022-09-12T23:43:31.694Z,10.07
2022-09-12T23:46:00.227Z,10.24
2022-09-12T23:48:29.239Z,10.45
2022-09-12T23:50:57.413Z,10.07
2022-09-12T23:53:25.578Z,10.31
2022-09-12T23:55:54.069Z,10.47
2022-09-12T23:58:23.103Z,10.50
